Time;durP1;ratioP1;P1;durP2;ratioP2;P2;SDS_P1;SDS_P2;PMS_P1;PMS_P2;Temp;Humidity;BMP_temperature;BMP_pressure;BME280_temperature;BME280_humidity;BME280_pressure;Samples;Min_cycle;Max_cycle;Signal;HPM_P1;HPM_P2
2021/10/06 00:00:45;;;;;;;0.70;0.30;;;;;;;12.07;100.00;99744.88;5091392;28;20197;-72
2021/10/06 00:03:11;;;;;;;1.50;0.50;;;;;;;12.09;100.00;99743.41;5091669;28;20679;-72
2021/10/06 00:05:36;;;;;;;1.40;0.60;;;;;;;12.10;100.00;99746.94;5091239;28;20618;-72
2021/10/06 00:08:01;;;;;;;1.03;0.57;;;;;;;12.06;100.00;99746.81;5091527;28;20174;-72
2021/10/06 00:10:27;;;;;;;0.70;0.70;;;;;;;12.02;100.00;99748.66;5091797;28;20184;-72
2021/10/06 00:12:53;;;;;;;0.30;0.30;;;;;;;12.03;100.00;99743.97;5091746;28;20593;-72
2021/10/06 00:15:18;;;;;;;1.70;0.80;;;;;;;12.02;100.00;99747.84;5072990;28;20174;-72
2021/10/06 00:17:43;;;;;;;0.73;0.50;;;;;;;12.02;100.00;99747.84;5091313;28;20277;-72
2021/10/06 00:20:11;;;;;;;0.43;0.40;;;;;;;12.02;100.00;99754.13;5091425;28;20177;-72
2021/10/06 00:22:37;;;;;;;4.90;0.67;;;;;;;12.04;100.00;99759.25;5091318;28;20212;-72
2021/10/06 00:25:03;;;;;;;3.13;0.77;;;;;;;12.07;100.00;99753.91;5072520;28;20209;-72
2021/10/06 00:27:28;;;;;;;0.47;0.40;;;;;;;12.02;100.00;99756.06;5073067;28;20223;-71
2021/10/06 00:29:53;;;;;;;0.90;0.60;;;;;;;11.99;100.00;99770.41;5091290;28;20178;-72
2021/10/06 00:32:19;;;;;;;3.03;0.90;;;;;;;11.95;100.00;99761.28;5091053;28;20202;-72
2021/10/06 00:34:44;;;;;;;0.80;0.80;;;;;;;11.94;100.00;99768.69;5091195;28;20297;-72
2021/10/06 00:37:10;;;;;;;4.40;0.43;;;;;;;11.93;100.00;99779.97;5073180;28;20544;-72
2021/10/06 00:39:35;;;;;;;1.17;0.70;;;;;;;11.88;100.00;99773.59;5091042;28;20273;-72
2021/10/06 00:42:00;;;;;;;1.07;0.47;;;;;;;11.89;100.00;99785.34;5090945;28;20203;-72
2021/10/06 00:44:33;;;;;;;2.50;0.80;;;;;;;11.87;100.00;99784.88;5090731;28;20634;-72
2021/10/06 00:46:58;;;;;;;2.00;1.00;;;;;;;11.86;100.00;99778.59;5090900;28;20173;-72
2021/10/06 00:49:23;;;;;;;1.27;0.53;;;;;;;11.87;100.00;99785.69;5090799;28;20311;-73
2021/10/06 00:51:49;;;;;;;0.57;0.47;;;;;;;11.89;100.00;99788.06;5090843;28;20202;-72
2021/10/06 00:54:14;;;;;;;0.73;0.43;;;;;;;11.90;100.00;99785.00;5072469;28;20592;-72
2021/10/06 00:56:39;;;;;;;0.83;0.67;;;;;;;11.90;100.00;99790.47;5072670;28;20568;-72
2021/10/06 00:59:05;;;;;;;0.50;0.50;;;;;;;11.83;100.00;99786.66;5090693;28;20681;-72
2021/10/06 01:01:31;;;;;;;0.70;0.70;;;;;;;11.91;100.00;99789.34;5090926;28;20176;-72
2021/10/06 01:03:56;;;;;;;0.47;0.47;;;;;;;11.91;100.00;99804.94;5090635;28;20181;-72
2021/10/06 01:06:22;;;;;;;0.70;0.60;;;;;;;11.79;100.00;99800.22;5090639;28;20309;-72
2021/10/06 01:08:47;;;;;;;0.70;0.57;;;;;;;11.80;100.00;99803.75;5090368;28;20193;-72
2021/10/06 01:11:13;;;;;;;1.33;0.70;;;;;;;11.83;100.00;99794.88;5090530;28;20625;-72
2021/10/06 01:13:39;;;;;;;4.00;0.70;;;;;;;11.82;100.00;99807.75;5090878;28;20170;-72
2021/10/06 01:16:05;;;;;;;1.83;0.80;;;;;;;11.78;100.00;99808.75;5072358;28;20177;-72
2021/10/06 01:18:31;;;;;;;4.33;0.57;;;;;;;11.66;100.00;99806.72;5090464;28;20185;-72
2021/10/06 01:20:56;;;;;;;0.73;0.73;;;;;;;11.58;100.00;99815.81;5090581;28;20186;-72
2021/10/06 01:23:22;;;;;;;0.57;0.50;;;;;;;11.55;100.00;99813.72;5090534;28;20170;-72
2021/10/06 01:25:47;;;;;;;1.87;0.77;;;;;;;11.52;100.00;99815.22;5090297;28;20173;-71
2021/10/06 01:28:13;;;;;;;2.30;0.80;;;;;;;11.53;100.00;99816.00;5090459;28;20200;-72
2021/10/06 01:30:38;;;;;;;1.60;0.87;;;;;;;11.52;100.00;99819.88;5090660;28;20197;-72
2021/10/06 01:33:04;;;;;;;1.13;0.80;;;;;;;11.57;100.00;99819.66;5090336;28;20678;-72
2021/10/06 01:35:30;;;;;;;1.40;0.60;;;;;;;11.51;100.00;99818.28;5071907;28;20170;-71
2021/10/06 01:37:55;;;;;;;1.20;0.77;;;;;;;11.49;100.00;99815.06;5090390;28;20169;-72
2021/10/06 01:40:22;;;;;;;0.60;0.60;;;;;;;11.59;100.00;99822.91;5090421;28;20257;-72
2021/10/06 01:42:49;;;;;;;1.63;1.10;;;;;;;11.51;100.00;99821.00;5090314;28;20202;-72
2021/10/06 01:45:18;;;;;;;1.80;0.80;;;;;;;11.66;100.00;99836.03;5089891;28;20574;-72
2021/10/06 01:47:43;;;;;;;0.97;0.60;;;;;;;11.66;100.00;99827.81;5090211;28;20223;-72
2021/10/06 01:50:10;;;;;;;1.83;0.70;;;;;;;11.68;100.00;99826.34;5072312;28;20185;-72
2021/10/06 01:52:35;;;;;;;1.20;0.50;;;;;;;11.75;100.00;99839.53;5090220;28;20198;-72
2021/10/06 01:55:00;;;;;;;1.40;0.80;;;;;;;11.76;100.00;99830.16;5089958;28;20665;-72
2021/10/06 01:57:26;;;;;;;1.50;0.70;;;;;;;11.65;100.00;99840.72;5083827;28;20193;-72
2021/10/06 01:59:51;;;;;;;0.90;0.70;;;;;;;11.71;100.00;99838.56;5090201;28;20285;-72
2021/10/06 02:02:19;;;;;;;0.90;0.70;;;;;;;11.70;100.00;99843.22;5089851;28;20303;-72
2021/10/06 02:04:45;;;;;;;0.77;0.70;;;;;;;11.67;100.00;99846.66;5089615;28;20498;-72
2021/10/06 02:07:11;;;;;;;0.50;0.50;;;;;;;11.72;100.00;99846.47;5089845;28;20642;-72
2021/10/06 02:09:36;;;;;;;1.03;0.60;;;;;;;11.67;100.00;99851.31;5090063;28;20542;-72
2021/10/06 02:12:02;;;;;;;0.57;0.57;;;;;;;11.72;100.00;99845.66;5089675;28;20198;-72
2021/10/06 02:14:27;;;;;;;1.83;1.33;;;;;;;11.67;100.00;99843.91;5090028;28;20176;-72
2021/10/06 02:16:53;;;;;;;0.93;0.70;;;;;;;11.69;100.00;99847.09;5088932;28;20591;-72
2021/10/06 02:19:18;;;;;;;0.67;0.60;;;;;;;11.56;100.00;99846.22;5090014;28;20188;-72
2021/10/06 02:21:43;;;;;;;0.80;0.70;;;;;;;11.52;100.00;99839.81;5091483;28;20180;-72
2021/10/06 02:24:09;;;;;;;0.67;0.67;;;;;;;11.49;100.00;99845.16;5093541;28;20185;-72
2021/10/06 02:26:34;;;;;;;2.73;0.90;;;;;;;11.44;100.00;99842.63;5093683;28;20173;-71
2021/10/06 02:29:00;;;;;;;0.67;0.67;;;;;;;11.45;100.00;99844.25;5093713;28;20212;-72
2021/10/06 02:31:26;;;;;;;1.17;1.07;;;;;;;11.45;100.00;99845.03;5093461;28;20626;-72
2021/10/06 02:33:51;;;;;;;2.07;0.80;;;;;;;11.48;100.00;99851.78;5093968;28;20209;-72
2021/10/06 02:36:16;;;;;;;1.17;0.80;;;;;;;11.49;100.00;99853.38;5093578;28;20170;-71
2021/10/06 02:38:42;;;;;;;1.60;0.43;;;;;;;11.50;100.00;99861.25;5093631;28;20608;-72
2021/10/06 02:41:07;;;;;;;0.60;0.60;;;;;;;11.48;100.00;99857.25;5093411;28;20223;-72
2021/10/06 02:43:32;;;;;;;1.10;0.97;;;;;;;11.48;100.00;99858.03;5093387;28;20715;-72
2021/10/06 02:45:58;;;;;;;1.33;1.20;;;;;;;11.50;100.00;99860.44;5093436;28;20179;-72
2021/10/06 02:48:24;;;;;;;3.70;0.80;;;;;;;11.51;100.00;99862.03;5093295;28;20178;-72
2021/10/06 02:50:50;;;;;;;0.77;0.77;;;;;;;11.51;100.00;99871.06;5091838;28;20182;-72
2021/10/06 02:53:15;;;;;;;0.93;0.83;;;;;;;11.53;100.00;99857.84;5091857;28;20240;-72
2021/10/06 02:55:41;;;;;;;2.53;1.00;;;;;;;11.54;100.00;99867.66;5093066;28;20197;-72
2021/10/06 02:58:06;;;;;;;1.33;1.20;;;;;;;11.52;100.00;99869.13;5093185;28;20179;-72
2021/10/06 03:00:32;;;;;;;1.33;1.27;;;;;;;11.49;100.00;99876.06;5093026;28;20178;-72
2021/10/06 03:02:57;;;;;;;2.00;0.53;;;;;;;11.48;100.00;99873.66;5093170;28;20235;-72
2021/10/06 03:05:23;;;;;;;3.17;0.90;;;;;;;11.47;100.00;99877.53;5092690;28;20265;-71
2021/10/06 03:07:48;;;;;;;0.70;0.70;;;;;;;11.40;100.00;99869.03;5093372;28;20202;-72
2021/10/06 03:10:14;;;;;;;0.40;0.40;;;;;;;11.35;100.00;99852.81;5092997;28;20181;-71
2021/10/06 03:12:40;;;;;;;1.67;0.70;;;;;;;11.33;100.00;99858.63;5093221;28;20510;-72
2021/10/06 03:15:07;;;;;;;1.63;0.70;;;;;;;11.29;100.00;99866.69;5092665;28;20178;-72
2021/10/06 03:17:32;;;;;;;0.97;0.83;;;;;;;11.25;100.00;99873.94;5092882;28;20311;-72
2021/10/06 03:19:58;;;;;;;1.90;0.80;;;;;;;11.22;100.00;99885.53;5092769;28;20181;-72
2021/10/06 03:22:23;;;;;;;0.80;0.80;;;;;;;11.13;100.00;99865.63;5092508;28;20583;-72
2021/10/06 03:24:49;;;;;;;0.80;0.70;;;;;;;11.12;100.00;99894.09;5092430;28;20178;-71
2021/10/06 03:27:16;;;;;;;1.33;0.80;;;;;;;11.07;100.00;99890.75;5091336;28;20174;-71
2021/10/06 03:29:42;;;;;;;0.50;0.43;;;;;;;11.05;100.00;99893.81;5092688;28;20538;-71
2021/10/06 03:32:08;;;;;;;0.30;0.30;;;;;;;11.02;100.00;99891.75;5092241;28;20688;-72
2021/10/06 03:34:33;;;;;;;0.90;0.57;;;;;;;10.99;100.00;99893.22;5092287;28;20166;-72
2021/10/06 03:36:58;;;;;;;0.80;0.80;;;;;;;10.97;100.00;99903.66;5092612;28;20678;-72
2021/10/06 03:39:24;;;;;;;1.70;1.20;;;;;;;10.95;100.00;99891.44;5092479;28;20180;-71
2021/10/06 03:41:49;;;;;;;0.80;0.70;;;;;;;10.94;100.00;99898.03;5092456;28;20173;-72
2021/10/06 03:44:14;;;;;;;2.00;0.90;;;;;;;10.93;100.00;99891.78;5092300;28;20178;-72
2021/10/06 03:46:40;;;;;;;0.77;0.70;;;;;;;10.97;100.00;99900.09;5092948;28;20246;-71
2021/10/06 03:49:05;;;;;;;0.83;0.67;;;;;;;10.97;100.00;99909.13;5099107;28;20169;-71
2021/10/06 03:51:31;;;;;;;1.13;0.60;;;;;;;10.95;100.00;99911.38;5092579;28;20231;-72
2021/10/06 03:53:56;;;;;;;2.87;0.83;;;;;;;10.95;100.00;99921.50;5092351;28;20257;-72
2021/10/06 03:56:21;;;;;;;0.70;0.70;;;;;;;10.94;100.00;99925.38;5092040;28;20299;-72
2021/10/06 03:58:47;;;;;;;3.63;0.67;;;;;;;10.87;100.00;99919.63;5092427;28;20509;-72
2021/10/06 04:01:12;;;;;;;0.50;0.50;;;;;;;10.87;100.00;99925.88;5090636;28;20177;-71
2021/10/06 04:03:37;;;;;;;0.57;0.57;;;;;;;10.87;100.00;99919.63;5092163;28;20602;-71
2021/10/06 04:06:03;;;;;;;0.80;0.80;;;;;;;10.84;100.00;99925.72;5091928;28;20197;-71
2021/10/06 04:08:28;;;;;;;1.03;0.60;;;;;;;10.81;100.00;99929.09;5092194;28;20177;-72
2021/10/06 04:10:53;;;;;;;1.27;0.70;;;;;;;10.77;100.00;99936.34;5091603;28;20169;-72
2021/10/06 04:13:19;;;;;;;0.73;0.70;;;;;;;10.75;100.00;99930.41;5091726;28;20212;-71
2021/10/06 04:15:44;;;;;;;0.60;0.53;;;;;;;10.78;100.00;99935.22;5091745;28;20259;-71
2021/10/06 04:18:10;;;;;;;0.20;0.20;;;;;;;10.71;100.00;99927.53;5091642;28;20162;-72
2021/10/06 04:20:36;;;;;;;0.10;0.10;;;;;;;10.70;100.00;99926.72;5091958;28;20166;-72
2021/10/06 04:23:02;;;;;;;1.17;0.80;;;;;;;10.77;100.00;99928.16;5089879;28;20239;-72
2021/10/06 04:25:27;;;;;;;0.50;0.50;;;;;;;10.75;100.00;99931.22;5091127;28;20178;-72
2021/10/06 04:27:52;;;;;;;0.67;0.67;;;;;;;10.75;100.00;99939.41;5091474;28;20180;-72
2021/10/06 04:30:18;;;;;;;0.60;0.60;;;;;;;10.77;100.00;99933.63;5091383;28;20174;-72
2021/10/06 04:32:44;;;;;;;1.13;0.80;;;;;;;10.78;100.00;99949.69;5091025;28;20211;-71
2021/10/06 04:35:10;;;;;;;3.50;0.90;;;;;;;10.80;100.00;99936.50;5091347;28;20170;-71
2021/10/06 04:37:36;;;;;;;0.87;0.60;;;;;;;10.85;100.00;99947.28;5090997;28;20181;-72
2021/10/06 04:40:01;;;;;;;0.30;0.30;;;;;;;10.83;100.00;99956.91;5091124;28;20170;-71
2021/10/06 04:42:27;;;;;;;13.23;0.57;;;;;;;10.85;100.00;99954.63;5091228;28;20657;-72
2021/10/06 04:44:52;;;;;;;0.77;0.40;;;;;;;10.86;100.00;99959.00;5088955;28;20633;-72
2021/10/06 04:47:18;;;;;;;0.60;0.60;;;;;;;10.85;100.00;99955.47;5090981;28;20580;-72
2021/10/06 04:49:43;;;;;;;0.83;0.47;;;;;;;10.85;100.00;99963.66;5090996;28;20174;-72
2021/10/06 04:52:09;;;;;;;1.77;0.30;;;;;;;10.85;100.00;99962.84;5091022;28;20204;-72
2021/10/06 04:54:34;;;;;;;1.17;0.50;;;;;;;10.82;100.00;99961.56;5090709;28;20181;-72
2021/10/06 04:56:59;;;;;;;0.00;0.00;;;;;;;10.86;100.00;99984.41;5090978;28;20170;-72
2021/10/06 04:59:25;;;;;;;0.30;0.30;;;;;;;10.85;100.00;99968.31;5090880;28;20219;-71
2021/10/06 05:01:50;;;;;;;0.40;0.40;;;;;;;10.88;100.00;99973.16;5090802;28;20405;-71
2021/10/06 05:04:15;;;;;;;0.30;0.30;;;;;;;10.87;100.00;99980.53;5090555;28;20257;-72
2021/10/06 05:06:41;;;;;;;0.50;0.50;;;;;;;10.85;100.00;99979.25;5090855;28;20214;-71
2021/10/06 05:09:06;;;;;;;0.97;0.50;;;;;;;10.79;100.00;99983.28;5090938;28;20537;-71
2021/10/06 05:11:31;;;;;;;0.57;0.57;;;;;;;10.80;100.00;99990.34;5090510;28;20166;-71
2021/10/06 05:13:58;;;;;;;0.10;0.10;;;;;;;10.80;100.00;99982.16;5090382;28;20169;-71
2021/10/06 05:16:24;;;;;;;0.30;0.30;;;;;;;10.78;100.00;99987.13;5090583;28;20239;-71
2021/10/06 05:18:50;;;;;;;3.20;1.53;;;;;;;10.75;100.00;99976.88;5090493;28;20700;-71
2021/10/06 05:21:15;;;;;;;1.20;0.60;;;;;;;10.75;100.00;99983.13;5090339;28;20172;-71
2021/10/06 05:23:40;;;;;;;1.13;0.60;;;;;;;10.76;100.00;99979.28;5089205;28;20511;-72
2021/10/06 05:26:06;;;;;;;0.63;0.60;;;;;;;10.69;100.00;99960.63;5090581;28;20169;-72
2021/10/06 05:28:31;;;;;;;0.10;0.10;;;;;;;10.66;100.00;99969.47;5090571;28;20189;-71
2021/10/06 05:30:57;;;;;;;0.40;0.40;;;;;;;10.65;100.00;99976.06;5090458;28;20177;-71
2021/10/06 05:33:23;;;;;;;0.80;0.60;;;;;;;10.65;100.00;99984.25;5090462;28;20266;-71
2021/10/06 05:35:49;;;;;;;0.53;0.47;;;;;;;10.64;100.00;99990.84;5090216;28;20261;-71
2021/10/06 05:38:14;;;;;;;0.47;0.30;;;;;;;10.61;100.00;99991.50;5090481;28;20189;-72
2021/10/06 05:40:40;;;;;;;0.40;0.20;;;;;;;10.62;100.00;99984.09;5090536;28;20535;-72
2021/10/06 05:43:10;;;;;;;1.23;1.13;;;;;;;10.64;100.00;99998.25;5089004;28;20196;-71
2021/10/06 05:45:35;;;;;;;0.53;0.40;;;;;;;10.62;100.00;99995.84;5090197;28;20166;-72
2021/10/06 05:48:00;;;;;;;4.80;0.50;;;;;;;10.61;100.00;100010.63;5089191;28;20529;-71
2021/10/06 05:50:26;;;;;;;0.30;0.30;;;;;;;10.58;100.00;100016.72;5090215;28;20177;-71
2021/10/06 05:52:51;;;;;;;1.10;0.50;;;;;;;10.57;100.00;100020.59;5090209;28;20208;-71
2021/10/06 05:55:16;;;;;;;0.70;0.70;;;;;;;10.56;100.00;100026.34;5088765;28;20220;-72
2021/10/06 05:57:42;;;;;;;1.13;0.40;;;;;;;10.55;100.00;100025.53;5093713;28;20176;-71
2021/10/06 06:00:08;;;;;;;0.10;0.10;;;;;;;10.55;100.00;100033.75;5094390;28;20262;-71
2021/10/06 06:02:33;;;;;;;0.77;0.30;;;;;;;10.54;100.00;100040.34;5093886;28;20198;-71
2021/10/06 06:04:58;;;;;;;1.43;0.77;;;;;;;10.54;100.00;100045.00;5093949;28;20162;-71
2021/10/06 06:07:24;;;;;;;2.17;0.60;;;;;;;10.53;100.00;100046.13;5093976;28;20687;-72
2021/10/06 06:09:49;;;;;;;0.80;0.30;;;;;;;10.55;100.00;100050.13;5094007;28;20660;-71
2021/10/06 06:12:14;;;;;;;0.17;0.17;;;;;;;10.55;100.00;100052.06;5093782;28;20243;-71
2021/10/06 06:14:40;;;;;;;1.80;0.50;;;;;;;10.52;100.00;100052.72;5093558;28;20170;-74
2021/10/06 06:17:10;;;;;;;0.67;0.50;;;;;;;10.54;100.00;100051.25;5093704;28;20158;-75
2021/10/06 06:19:35;;;;;;;0.47;0.20;;;;;;;10.56;100.00;100056.41;5093680;28;20224;-71
2021/10/06 06:22:01;;;;;;;0.67;0.30;;;;;;;10.57;100.00;100049.84;5093377;28;20170;-72
2021/10/06 06:24:27;;;;;;;0.73;0.23;;;;;;;10.57;100.00;100058.84;5093643;28;20652;-74
2021/10/06 06:26:53;;;;;;;0.00;0.00;;;;;;;10.59;100.00;100056.59;5093767;28;20166;-73
2021/10/06 06:29:20;;;;;;;1.10;0.40;;;;;;;10.62;100.00;100063.31;5093542;28;20193;-72
2021/10/06 06:31:46;;;;;;;0.87;0.50;;;;;;;10.63;100.00;100063.00;5093373;28;20169;-72
2021/10/06 06:34:11;;;;;;;1.17;0.63;;;;;;;10.65;100.00;100065.41;5093192;28;20170;-74
2021/10/06 06:36:36;;;;;;;0.63;0.30;;;;;;;10.66;100.00;100067.81;5092153;28;20209;-74
2021/10/06 06:39:03;;;;;;;0.57;0.40;;;;;;;10.68;100.00;100060.09;5093569;28;20173;-73
2021/10/06 06:41:29;;;;;;;0.60;0.60;;;;;;;10.72;100.00;100084.88;5093363;28;20535;-73
2021/10/06 06:43:54;;;;;;;0.73;0.47;;;;;;;10.75;100.00;100075.22;5093088;28;20173;-73
2021/10/06 06:46:19;;;;;;;0.53;0.40;;;;;;;10.80;100.00;100088.72;5093432;28;20377;-73
2021/10/06 06:48:45;;;;;;;0.20;0.20;;;;;;;10.89;100.00;100097.72;5093128;28;20174;-73
2021/10/06 06:51:10;;;;;;;1.90;0.60;;;;;;;10.93;100.00;100096.75;5093339;28;20170;-74
2021/10/06 06:53:35;;;;;;;0.53;0.40;;;;;;;11.02;100.00;100096.75;5092980;28;20201;-73
2021/10/06 06:56:01;;;;;;;0.80;0.50;;;;;;;11.14;100.00;100096.91;5092960;28;20178;-74
2021/10/06 06:58:27;;;;;;;1.90;0.50;;;;;;;11.23;100.00;100100.44;5092975;28;20173;-70
2021/10/06 07:00:52;;;;;;;1.50;0.83;;;;;;;11.31;100.00;100096.88;5092498;28;20273;-72
2021/10/06 07:03:18;;;;;;;0.83;0.43;;;;;;;11.39;100.00;100095.25;5092820;28;20637;-72
2021/10/06 07:05:45;;;;;;;0.70;0.40;;;;;;;11.43;100.00;100089.91;5090386;28;20181;-73
2021/10/06 07:08:10;;;;;;;2.50;0.50;;;;;;;11.45;100.00;100085.75;5091284;28;20182;-73
2021/10/06 07:10:36;;;;;;;1.27;0.53;;;;;;;11.49;100.00;100096.84;5092631;28;20174;-72
2021/10/06 07:13:02;;;;;;;0.60;0.50;;;;;;;11.51;100.00;100100.06;5092378;28;20208;-73
2021/10/06 07:15:28;;;;;;;1.13;0.63;;;;;;;11.57;100.00;100106.94;5092238;28;20637;-74
2021/10/06 07:17:53;;;;;;;0.73;0.60;;;;;;;11.61;100.00;100103.25;5092536;28;20174;-74
2021/10/06 07:20:18;;;;;;;0.53;0.43;;;;;;;11.67;100.00;100109.34;5092761;28;20170;-75
2021/10/06 07:22:45;;;;;;;0.57;0.57;;;;;;;11.74;100.00;100112.38;5092446;28;20248;-72
2021/10/06 07:25:11;;;;;;;2.00;0.40;;;;;;;11.82;100.00;100113.50;5092329;28;20166;-72
2021/10/06 07:27:36;;;;;;;1.93;0.40;;;;;;;11.89;100.00;100119.28;5092448;28;20691;-72
2021/10/06 07:30:04;;;;;;;0.40;0.40;;;;;;;11.91;98.36;100125.25;5090776;28;20182;-72
2021/10/06 07:32:29;;;;;;;0.40;0.30;;;;;;;11.96;98.84;100127.78;5092332;28;20200;-72
2021/10/06 07:34:55;;;;;;;0.20;0.20;;;;;;;12.00;96.32;100131.47;5091862;28;20170;-72
2021/10/06 07:37:21;;;;;;;0.20;0.20;;;;;;;12.04;96.31;100134.38;5091903;28;20162;-71
2021/10/06 07:39:46;;;;;;;1.50;0.37;;;;;;;12.04;96.80;100145.31;5092588;28;20238;-72
2021/10/06 07:42:11;;;;;;;1.93;0.60;;;;;;;12.05;96.48;100147.72;5073917;28;20629;-72
2021/10/06 07:44:37;;;;;;;0.80;0.40;;;;;;;12.03;96.37;100143.72;5091791;28;20162;-72
2021/10/06 07:47:02;;;;;;;0.40;0.40;;;;;;;12.05;95.94;100152.41;5091569;28;20265;-73
2021/10/06 07:49:28;;;;;;;0.40;0.40;;;;;;;12.06;96.47;100149.34;5090992;28;20182;-72
2021/10/06 07:51:53;;;;;;;1.77;0.57;;;;;;;12.07;95.56;100152.88;5091791;28;20596;-72
2021/10/06 07:54:18;;;;;;;0.50;0.50;;;;;;;12.18;95.68;100171.34;5091560;28;20637;-72
2021/10/06 07:56:44;;;;;;;1.23;0.43;;;;;;;12.20;95.49;100173.75;5091876;28;20189;-72
2021/10/06 07:59:09;;;;;;;0.23;0.20;;;;;;;12.19;95.75;100170.22;5091865;28;20180;-72
2021/10/06 08:01:34;;;;;;;1.00;0.60;;;;;;;12.21;94.87;100169.91;5091563;28;20198;-73
2021/10/06 08:04:00;;;;;;;1.10;1.00;;;;;;;12.24;95.03;100169.22;5088966;28;20258;-72
2021/10/06 08:06:25;;;;;;;1.80;0.70;;;;;;;12.24;94.87;100188.41;5088975;28;20190;-72
2021/10/06 08:08:50;;;;;;;0.50;0.40;;;;;;;12.28;95.67;100197.56;5091815;28;20387;-72
2021/10/06 08:11:16;;;;;;;1.07;0.93;;;;;;;12.26;94.80;100188.88;5091687;28;20192;-72
2021/10/06 08:13:42;;;;;;;3.27;1.03;;;;;;;12.26;94.69;100194.34;5091343;28;20734;-72
2021/10/06 08:16:08;;;;;;;0.63;0.63;;;;;;;12.20;94.76;100196.47;5091860;28;20254;-72
2021/10/06 08:18:34;;;;;;;0.10;0.10;;;;;;;12.16;94.54;100211.16;5090826;28;20174;-73
2021/10/06 08:20:59;;;;;;;1.27;0.70;;;;;;;12.10;94.67;100198.75;5091705;28;20182;-72
2021/10/06 08:23:26;;;;;;;0.60;0.20;;;;;;;12.04;95.50;100205.56;5091509;28;20174;-72
2021/10/06 08:25:52;;;;;;;0.20;0.20;;;;;;;12.04;95.45;100208.31;5091464;28;20166;-72
2021/10/06 08:28:19;;;;;;;1.20;0.57;;;;;;;12.16;94.79;100205.69;5085600;28;20175;-72
2021/10/06 08:30:45;;;;;;;0.17;0.17;;;;;;;12.33;94.11;100205.63;5091172;28;20182;-72
2021/10/06 08:33:10;;;;;;;2.33;0.40;;;;;;;12.48;92.93;100212.47;5091536;28;20228;-73
2021/10/06 08:35:37;;;;;;;1.07;0.60;;;;;;;12.58;92.68;100214.03;5091264;28;20685;-72
2021/10/06 08:38:04;;;;;;;0.07;0.07;;;;;;;12.65;90.06;100228.03;5091446;28;20166;-72
2021/10/06 08:40:31;;;;;;;0.13;0.13;;;;;;;12.72;89.37;100207.16;5072883;28;20170;-72
2021/10/06 08:42:56;;;;;;;1.77;0.80;;;;;;;12.81;89.53;100229.06;5090313;28;20173;-72
2021/10/06 08:45:22;;;;;;;2.30;0.50;;;;;;;12.85;88.03;100232.75;5090895;28;20543;-72
2021/10/06 08:47:47;;;;;;;0.53;0.50;;;;;;;12.95;87.68;100239.78;5091036;28;20177;-72
2021/10/06 08:50:17;;;;;;;0.83;0.57;;;;;;;13.01;86.77;100242.00;5091051;28;20260;-72
2021/10/06 08:52:46;;;;;;;0.67;0.20;;;;;;;13.02;85.30;100240.09;5090957;28;20201;-73
2021/10/06 08:55:11;;;;;;;1.30;1.20;;;;;;;13.10;85.95;100239.22;5090688;28;20177;-72
2021/10/06 08:57:37;;;;;;;1.20;0.17;;;;;;;13.23;85.66;100240.13;5091026;28;20197;-72
2021/10/06 09:00:05;;;;;;;0.63;0.47;;;;;;;13.23;84.61;100237.38;5073210;28;20690;-72
2021/10/06 09:02:37;;;;;;;1.10;0.40;;;;;;;13.04;84.64;100240.56;5090755;28;20249;-72
2021/10/06 09:05:03;;;;;;;0.20;0.20;;;;;;;12.99;86.03;100241.53;5090545;28;20162;-72
2021/10/06 09:07:28;;;;;;;0.70;0.30;;;;;;;12.90;86.02;100238.06;5090792;28;20174;-72
2021/10/06 09:09:54;;;;;;;3.20;0.50;;;;;;;12.97;85.98;100243.00;5090799;28;20193;-72
2021/10/06 09:12:21;;;;;;;0.30;0.20;;;;;;;13.14;84.57;100242.09;5090653;28;20197;-72
2021/10/06 09:14:47;;;;;;;0.20;0.20;;;;;;;13.32;83.67;100247.16;5090572;28;20161;-72
2021/10/06 09:17:18;;;;;;;0.37;0.20;;;;;;;13.50;81.42;100250.56;5090603;28;20169;-72
2021/10/06 09:19:45;;;;;;;0.50;0.20;;;;;;;13.47;81.00;100242.22;5090704;28;20232;-72
2021/10/06 09:22:13;;;;;;;1.33;0.30;;;;;;;13.33;81.12;100245.22;5090924;28;20464;-72
2021/10/06 09:24:54;;;;;;;0.43;0.33;;;;;;;13.33;82.83;100240.53;5083279;28;20264;-73
2021/10/06 09:27:26;;;;;;;0.73;0.40;;;;;;;13.49;83.57;100248.97;5075417;28;20174;-73
2021/10/06 09:29:55;;;;;;;0.57;0.57;;;;;;;13.73;84.24;100267.47;5090931;28;20174;-72
2021/10/06 09:32:24;;;;;;;0.47;0.40;;;;;;;13.78;80.06;100260.97;5094907;28;20225;-72
2021/10/06 09:35:06;;;;;;;0.43;0.43;;;;;;;13.80;81.83;100261.44;5093926;28;20535;-73
2021/10/06 09:37:31;;;;;;;1.00;0.30;;;;;;;13.88;81.35;100257.81;5094600;28;20178;-72
2021/10/06 09:39:57;;;;;;;1.57;0.50;;;;;;;13.92;79.03;100259.56;5094621;28;20218;-72
2021/10/06 09:42:23;;;;;;;0.40;0.40;;;;;;;13.95;77.78;100264.38;5094684;28;20186;-72
2021/10/06 09:44:56;;;;;;;0.97;0.60;;;;;;;14.02;77.43;100263.78;5094330;28;20193;-72
2021/10/06 09:47:23;;;;;;;1.03;0.47;;;;;;;14.19;79.01;100280.13;5094717;28;20510;-72
2021/10/06 09:49:56;;;;;;;0.10;0.10;;;;;;;14.26;78.28;100277.63;5094611;28;20173;-72
2021/10/06 09:52:28;;;;;;;0.23;0.23;;;;;;;14.41;78.83;100281.66;5094753;28;20197;-72
2021/10/06 09:54:54;;;;;;;0.50;0.50;;;;;;;14.35;75.19;100265.72;5093951;28;20182;-72
2021/10/06 09:57:23;;;;;;;1.07;0.20;;;;;;;14.22;77.06;100278.63;5093958;28;20177;-72
2021/10/06 09:59:50;;;;;;;1.20;0.20;;;;;;;14.39;76.30;100277.63;5092994;28;20189;-72
2021/10/06 10:02:16;;;;;;;0.73;0.30;;;;;;;14.37;71.58;100271.69;5094197;28;20223;-72
2021/10/06 10:04:41;;;;;;;0.40;0.40;;;;;;;14.46;73.15;100289.69;5094060;28;20170;-73
2021/10/06 10:07:07;;;;;;;0.60;0.57;;;;;;;14.52;73.09;100280.09;5094186;28;20577;-72
2021/10/06 10:09:32;;;;;;;1.33;0.33;;;;;;;14.70;73.96;100288.94;5094184;28;20626;-72
2021/10/06 10:11:58;;;;;;;0.00;0.00;;;;;;;14.78;70.95;100287.22;5093540;28;20208;-72
2021/10/06 10:14:24;;;;;;;0.80;0.80;;;;;;;14.71;72.81;100301.53;5082024;28;20187;-72
2021/10/06 10:16:49;;;;;;;0.60;0.30;;;;;;;14.49;71.38;100289.03;5094001;28;20170;-72
2021/10/06 10:19:15;;;;;;;1.10;0.40;;;;;;;14.51;71.74;100291.44;5073965;28;20261;-72
2021/10/06 10:21:44;;;;;;;1.23;0.20;;;;;;;14.42;71.34;100301.69;5077961;28;20178;-72
2021/10/06 10:24:23;;;;;;;0.20;0.20;;;;;;;14.39;73.24;100313.38;5078175;28;20179;-72
2021/10/06 10:26:58;;;;;;;0.50;0.20;;;;;;;14.25;74.48;100295.25;5066228;28;20196;-72
2021/10/06 10:29:32;;;;;;;6.47;0.40;;;;;;;14.16;74.11;100308.25;5093952;28;20178;-72
2021/10/06 10:32:04;;;;;;;2.10;0.50;;;;;;;14.16;74.33;100307.47;5094044;28;20213;-72
2021/10/06 10:35:07;;;;;;;0.33;0.30;;;;;;;14.16;72.44;100308.25;5093580;28;20182;-72
2021/10/06 10:37:54;;;;;;;0.40;0.23;;;;;;;14.14;72.31;100310.53;5093559;28;20180;-72
2021/10/06 10:40:34;;;;;;;2.30;0.17;;;;;;;14.07;71.44;100302.06;5093486;28;20180;-72
2021/10/06 10:43:07;;;;;;;0.60;0.60;;;;;;;14.07;72.87;100299.31;5092451;28;20624;-72
2021/10/06 10:45:47;;;;;;;0.37;0.30;;;;;;;14.15;73.37;100306.66;5085914;28;20265;-72
2021/10/06 10:48:15;;;;;;;0.00;0.00;;;;;;;14.22;73.37;100306.13;5090232;28;20192;-72
2021/10/06 10:50:44;;;;;;;0.57;0.37;;;;;;;14.41;73.99;100313.84;5084883;28;20538;-72
2021/10/06 10:53:20;;;;;;;0.20;0.20;;;;;;;14.62;74.30;100317.34;5088883;28;20216;-72
2021/10/06 10:56:00;;;;;;;0.80;0.37;;;;;;;14.80;73.23;100321.50;5084043;28;20184;-72
2021/10/06 10:58:30;;;;;;;0.10;0.00;;;;;;;14.79;70.20;100314.38;5091991;28;20182;-72
2021/10/06 11:01:01;;;;;;;0.10;0.10;;;;;;;14.67;70.65;100321.81;5092444;28;20174;-72
2021/10/06 11:03:27;;;;;;;0.53;0.53;;;;;;;14.51;70.18;100314.25;5093230;28;20178;-72
2021/10/06 11:05:53;;;;;;;0.40;0.40;;;;;;;14.51;69.76;100313.44;5092210;28;20182;-72
2021/10/06 11:08:27;;;;;;;0.10;0.10;;;;;;;14.40;70.27;100307.53;5092876;28;20259;-72
2021/10/06 11:11:11;;;;;;;0.47;0.47;;;;;;;14.36;71.26;100308.56;5093176;28;20172;-72
2021/10/06 11:13:38;;;;;;;0.00;0.00;;;;;;;14.37;70.32;100318.41;5092219;28;20606;-72
2021/10/06 11:16:05;;;;;;;0.23;0.23;;;;;;;14.16;68.49;100291.78;5092829;28;20190;-72
2021/10/06 11:18:51;;;;;;;1.27;0.70;;;;;;;14.30;70.56;100306.00;5074955;28;20570;-72
2021/10/06 11:21:39;;;;;;;4.93;0.27;;;;;;;14.73;69.48;100324.00;5092822;28;20177;-72